sensor_id;sensor_type;location;lat;lon;timestamp;P1;durP1;ratioP1;P2;durP2;ratioP2
27293;SDS011;14785;52.556;13.430;2023-05-10T00:01:55;4.80;;;2.27;;
27293;SDS011;14785;52.556;13.430;2023-05-10T00:04:20;2.70;;;2.33;;
27293;SDS011;14785;52.556;13.430;2023-05-10T00:06:46;3.40;;;2.30;;
27293;SDS011;14785;52.556;13.430;2023-05-10T00:09:11;9.13;;;2.20;;
27293;SDS011;14785;52.556;13.430;2023-05-10T00:11:37;4.17;;;2.37;;
27293;SDS011;14785;52.556;13.430;2023-05-10T00:14:02;6.93;;;2.93;;
27293;SDS011;14785;52.556;13.430;2023-05-10T00:16:28;7.50;;;2.93;;
27293;SDS011;14785;52.556;13.430;2023-05-10T00:18:53;4.90;;;1.93;;
27293;SDS011;14785;52.556;13.430;2023-05-10T00:21:21;5.28;;;2.70;;
27293;SDS011;14785;52.556;13.430;2023-05-10T00:23:46;7.07;;;2.65;;
27293;SDS011;14785;52.556;13.430;2023-05-10T00:26:11;13.60;;;3.20;;
27293;SDS011;14785;52.556;13.430;2023-05-10T00:28:37;4.50;;;2.80;;
27293;SDS011;14785;52.556;13.430;2023-05-10T00:31:02;7.87;;;1.93;;
27293;SDS011;14785;52.556;13.430;2023-05-10T00:33:28;5.70;;;3.23;;
27293;SDS011;14785;52.556;13.430;2023-05-10T00:35:53;4.37;;;2.43;;
27293;SDS011;14785;52.556;13.430;2023-05-10T00:38:18;6.20;;;3.37;;
27293;SDS011;14785;52.556;13.430;2023-05-10T00:40:44;3.93;;;2.03;;
27293;SDS011;14785;52.556;13.430;2023-05-10T00:43:09;4.00;;;2.40;;
27293;SDS011;14785;52.556;13.430;2023-05-10T00:45:35;5.77;;;2.60;;
27293;SDS011;14785;52.556;13.430;2023-05-10T00:48:02;4.35;;;2.20;;
27293;SDS011;14785;52.556;13.430;2023-05-10T00:50:28;5.72;;;2.85;;
27293;SDS011;14785;52.556;13.430;2023-05-10T00:52:56;5.65;;;3.05;;
27293;SDS011;14785;52.556;13.430;2023-05-10T00:55:23;5.30;;;2.53;;
27293;SDS011;14785;52.556;13.430;2023-05-10T00:57:49;4.03;;;2.70;;
27293;SDS011;14785;52.556;13.430;2023-05-10T01:00:14;5.80;;;2.73;;
27293;SDS011;14785;52.556;13.430;2023-05-10T01:02:44;4.40;;;2.50;;
27293;SDS011;14785;52.556;13.430;2023-05-10T01:05:10;5.53;;;2.38;;
27293;SDS011;14785;52.556;13.430;2023-05-10T01:07:36;3.22;;;2.45;;
27293;SDS011;14785;52.556;13.430;2023-05-10T01:10:01;5.67;;;2.33;;
27293;SDS011;14785;52.556;13.430;2023-05-10T01:12:27;5.83;;;3.03;;
27293;SDS011;14785;52.556;13.430;2023-05-10T01:14:52;3.60;;;1.93;;
27293;SDS011;14785;52.556;13.430;2023-05-10T01:19:45;3.22;;;1.70;;
27293;SDS011;14785;52.556;13.430;2023-05-10T01:22:20;7.73;;;2.17;;
27293;SDS011;14785;52.556;13.430;2023-05-10T01:27:39;4.57;;;2.58;;
27293;SDS011;14785;52.556;13.430;2023-05-10T01:33:11;7.60;;;2.40;;
27293;SDS011;14785;52.556;13.430;2023-05-10T01:35:51;4.65;;;2.58;;
27293;SDS011;14785;52.556;13.430;2023-05-10T01:44:10;4.32;;;2.28;;
27293;SDS011;14785;52.556;13.430;2023-05-10T01:46:44;6.13;;;3.05;;
27293;SDS011;14785;52.556;13.430;2023-05-10T01:49:16;6.03;;;2.88;;
27293;SDS011;14785;52.556;13.430;2023-05-10T01:51:50;6.40;;;2.63;;
27293;SDS011;14785;52.556;13.430;2023-05-10T01:54:20;3.80;;;2.03;;
27293;SDS011;14785;52.556;13.430;2023-05-10T01:56:50;5.47;;;2.80;;
27293;SDS011;14785;52.556;13.430;2023-05-10T02:01:52;3.80;;;2.50;;
27293;SDS011;14785;52.556;13.430;2023-05-10T02:04:19;3.97;;;2.35;;
27293;SDS011;14785;52.556;13.430;2023-05-10T02:06:46;6.00;;;2.40;;
27293;SDS011;14785;52.556;13.430;2023-05-10T02:11:39;4.65;;;2.25;;
27293;SDS011;14785;52.556;13.430;2023-05-10T02:14:07;4.72;;;2.30;;
27293;SDS011;14785;52.556;13.430;2023-05-10T02:16:36;5.68;;;2.78;;
27293;SDS011;14785;52.556;13.430;2023-05-10T02:19:03;3.95;;;2.50;;
27293;SDS011;14785;52.556;13.430;2023-05-10T02:21:30;3.67;;;1.98;;
27293;SDS011;14785;52.556;13.430;2023-05-10T02:23:58;5.22;;;2.65;;
27293;SDS011;14785;52.556;13.430;2023-05-10T02:26:25;4.53;;;2.60;;
27293;SDS011;14785;52.556;13.430;2023-05-10T02:28:53;6.30;;;2.72;;
27293;SDS011;14785;52.556;13.430;2023-05-10T02:31:19;4.55;;;2.50;;
27293;SDS011;14785;52.556;13.430;2023-05-10T02:33:46;8.38;;;3.47;;
27293;SDS011;14785;52.556;13.430;2023-05-10T02:38:38;3.70;;;1.85;;
27293;SDS011;14785;52.556;13.430;2023-05-10T02:41:05;6.68;;;2.28;;
27293;SDS011;14785;52.556;13.430;2023-05-10T02:43:33;4.40;;;1.98;;
27293;SDS011;14785;52.556;13.430;2023-05-10T02:46:00;3.72;;;2.20;;
27293;SDS011;14785;52.556;13.430;2023-05-10T02:48:26;3.17;;;2.03;;
27293;SDS011;14785;52.556;13.430;2023-05-10T02:50:52;6.23;;;2.83;;
27293;SDS011;14785;52.556;13.430;2023-05-10T02:53:22;5.60;;;2.78;;
27293;SDS011;14785;52.556;13.430;2023-05-10T02:55:53;4.78;;;2.33;;
27293;SDS011;14785;52.556;13.430;2023-05-10T02:58:25;3.05;;;1.83;;
27293;SDS011;14785;52.556;13.430;2023-05-10T03:00:51;5.63;;;2.33;;
27293;SDS011;14785;52.556;13.430;2023-05-10T03:03:17;4.40;;;1.90;;
27293;SDS011;14785;52.556;13.430;2023-05-10T03:05:42;5.83;;;2.43;;
27293;SDS011;14785;52.556;13.430;2023-05-10T03:08:08;4.40;;;2.37;;
27293;SDS011;14785;52.556;13.430;2023-05-10T03:10:35;4.90;;;2.10;;
27293;SDS011;14785;52.556;13.430;2023-05-10T03:13:23;12.88;;;3.35;;
27293;SDS011;14785;52.556;13.430;2023-05-10T03:16:08;4.95;;;3.35;;
27293;SDS011;14785;52.556;13.430;2023-05-10T03:18:44;3.92;;;2.20;;
27293;SDS011;14785;52.556;13.430;2023-05-10T03:21:15;5.70;;;2.42;;
27293;SDS011;14785;52.556;13.430;2023-05-10T03:26:09;3.10;;;1.73;;
27293;SDS011;14785;52.556;13.430;2023-05-10T03:28:38;4.53;;;2.33;;
27293;SDS011;14785;52.556;13.430;2023-05-10T03:31:05;2.63;;;1.98;;
27293;SDS011;14785;52.556;13.430;2023-05-10T03:33:31;7.22;;;2.28;;
27293;SDS011;14785;52.556;13.430;2023-05-10T03:35:57;8.55;;;2.35;;
27293;SDS011;14785;52.556;13.430;2023-05-10T03:38:22;3.90;;;2.17;;
27293;SDS011;14785;52.556;13.430;2023-05-10T03:40:48;5.87;;;2.63;;
27293;SDS011;14785;52.556;13.430;2023-05-10T03:43:13;5.50;;;3.37;;
27293;SDS011;14785;52.556;13.430;2023-05-10T03:45:38;3.83;;;1.87;;
27293;SDS011;14785;52.556;13.430;2023-05-10T03:48:04;5.37;;;2.43;;
27293;SDS011;14785;52.556;13.430;2023-05-10T03:50:30;5.18;;;1.70;;
27293;SDS011;14785;52.556;13.430;2023-05-10T03:52:55;2.53;;;1.90;;
27293;SDS011;14785;52.556;13.430;2023-05-10T03:55:22;5.05;;;2.65;;
27293;SDS011;14785;52.556;13.430;2023-05-10T03:57:47;6.50;;;2.17;;
27293;SDS011;14785;52.556;13.430;2023-05-10T04:00:14;5.22;;;3.30;;
27293;SDS011;14785;52.556;13.430;2023-05-10T04:02:40;4.97;;;2.33;;
27293;SDS011;14785;52.556;13.430;2023-05-10T04:05:06;3.13;;;1.87;;
27293;SDS011;14785;52.556;13.430;2023-05-10T04:07:31;3.58;;;2.30;;
27293;SDS011;14785;52.556;13.430;2023-05-10T04:09:57;4.80;;;3.50;;
27293;SDS011;14785;52.556;13.430;2023-05-10T04:12:22;7.97;;;3.03;;
27293;SDS011;14785;52.556;13.430;2023-05-10T04:14:48;5.97;;;3.50;;
27293;SDS011;14785;52.556;13.430;2023-05-10T04:17:13;4.83;;;2.57;;
27293;SDS011;14785;52.556;13.430;2023-05-10T04:19:38;5.40;;;2.77;;
27293;SDS011;14785;52.556;13.430;2023-05-10T04:22:04;6.30;;;1.80;;
27293;SDS011;14785;52.556;13.430;2023-05-10T04:24:30;4.30;;;1.92;;
27293;SDS011;14785;52.556;13.430;2023-05-10T04:26:55;4.10;;;2.47;;
27293;SDS011;14785;52.556;13.430;2023-05-10T04:29:21;8.13;;;2.83;;
27293;SDS011;14785;52.556;13.430;2023-05-10T04:31:46;3.83;;;2.47;;
27293;SDS011;14785;52.556;13.430;2023-05-10T04:34:11;9.53;;;2.50;;
27293;SDS011;14785;52.556;13.430;2023-05-10T04:36:37;9.63;;;3.20;;
27293;SDS011;14785;52.556;13.430;2023-05-10T04:39:03;9.33;;;4.47;;
27293;SDS011;14785;52.556;13.430;2023-05-10T04:41:28;4.65;;;2.60;;
27293;SDS011;14785;52.556;13.430;2023-05-10T04:43:54;5.80;;;2.17;;
27293;SDS011;14785;52.556;13.430;2023-05-10T04:46:20;5.95;;;2.22;;
27293;SDS011;14785;52.556;13.430;2023-05-10T04:48:45;6.23;;;2.67;;
27293;SDS011;14785;52.556;13.430;2023-05-10T04:51:11;5.87;;;3.27;;
27293;SDS011;14785;52.556;13.430;2023-05-10T04:53:37;2.97;;;1.80;;
27293;SDS011;14785;52.556;13.430;2023-05-10T04:56:02;3.33;;;2.10;;
27293;SDS011;14785;52.556;13.430;2023-05-10T04:58:28;2.17;;;1.60;;
27293;SDS011;14785;52.556;13.430;2023-05-10T05:00:53;3.00;;;1.70;;
27293;SDS011;14785;52.556;13.430;2023-05-10T05:03:19;4.53;;;2.40;;
27293;SDS011;14785;52.556;13.430;2023-05-10T05:05:44;6.60;;;2.53;;
27293;SDS011;14785;52.556;13.430;2023-05-10T05:08:10;4.67;;;1.87;;
27293;SDS011;14785;52.556;13.430;2023-05-10T05:10:35;3.57;;;1.97;;
27293;SDS011;14785;52.556;13.430;2023-05-10T05:13:00;3.33;;;2.37;;
27293;SDS011;14785;52.556;13.430;2023-05-10T05:15:26;6.80;;;2.47;;
27293;SDS011;14785;52.556;13.430;2023-05-10T05:17:52;3.88;;;1.85;;
27293;SDS011;14785;52.556;13.430;2023-05-10T05:20:17;3.97;;;1.80;;
27293;SDS011;14785;52.556;13.430;2023-05-10T05:22:43;3.55;;;1.95;;
27293;SDS011;14785;52.556;13.430;2023-05-10T05:25:09;3.90;;;1.67;;
27293;SDS011;14785;52.556;13.430;2023-05-10T05:27:34;4.73;;;2.33;;
27293;SDS011;14785;52.556;13.430;2023-05-10T05:30:00;5.90;;;2.40;;
27293;SDS011;14785;52.556;13.430;2023-05-10T05:32:25;3.13;;;1.73;;
27293;SDS011;14785;52.556;13.430;2023-05-10T05:34:54;2.63;;;1.63;;
27293;SDS011;14785;52.556;13.430;2023-05-10T05:37:22;3.50;;;1.80;;
27293;SDS011;14785;52.556;13.430;2023-05-10T05:39:47;2.93;;;1.77;;
27293;SDS011;14785;52.556;13.430;2023-05-10T05:42:13;6.60;;;2.20;;
27293;SDS011;14785;52.556;13.430;2023-05-10T05:44:40;12.25;;;2.88;;
27293;SDS011;14785;52.556;13.430;2023-05-10T05:47:05;5.75;;;2.60;;
27293;SDS011;14785;52.556;13.430;2023-05-10T05:49:31;2.50;;;1.55;;
27293;SDS011;14785;52.556;13.430;2023-05-10T05:52:00;2.90;;;1.57;;
27293;SDS011;14785;52.556;13.430;2023-05-10T05:54:26;2.15;;;1.67;;
27293;SDS011;14785;52.556;13.430;2023-05-10T05:56:58;2.30;;;1.85;;
27293;SDS011;14785;52.556;13.430;2023-05-10T05:59:25;6.45;;;2.33;;
27293;SDS011;14785;52.556;13.430;2023-05-10T06:01:50;5.30;;;2.00;;
27293;SDS011;14785;52.556;13.430;2023-05-10T06:04:16;2.73;;;1.80;;
27293;SDS011;14785;52.556;13.430;2023-05-10T06:06:42;3.93;;;2.00;;
27293;SDS011;14785;52.556;13.430;2023-05-10T06:09:07;3.17;;;1.42;;
27293;SDS011;14785;52.556;13.430;2023-05-10T06:13:59;2.42;;;1.48;;
27293;SDS011;14785;52.556;13.430;2023-05-10T06:16:26;3.85;;;1.48;;
27293;SDS011;14785;52.556;13.430;2023-05-10T06:18:51;2.87;;;1.57;;
27293;SDS011;14785;52.556;13.430;2023-05-10T06:21:16;3.77;;;1.93;;
27293;SDS011;14785;52.556;13.430;2023-05-10T06:23:42;2.83;;;1.30;;
27293;SDS011;14785;52.556;13.430;2023-05-10T06:26:07;2.13;;;1.20;;
27293;SDS011;14785;52.556;13.430;2023-05-10T06:28:33;7.00;;;1.50;;
27293;SDS011;14785;52.556;13.430;2023-05-10T06:30:58;5.30;;;2.00;;
27293;SDS011;14785;52.556;13.430;2023-05-10T06:33:24;3.15;;;1.10;;
27293;SDS011;14785;52.556;13.430;2023-05-10T06:35:49;2.80;;;1.40;;
27293;SDS011;14785;52.556;13.430;2023-05-10T06:38:15;3.50;;;1.43;;
27293;SDS011;14785;52.556;13.430;2023-05-10T06:40:41;4.30;;;1.77;;
27293;SDS011;14785;52.556;13.430;2023-05-10T06:45:32;4.22;;;1.77;;
27293;SDS011;14785;52.556;13.430;2023-05-10T06:47:58;3.77;;;1.50;;
27293;SDS011;14785;52.556;13.430;2023-05-10T06:50:23;2.40;;;1.50;;
27293;SDS011;14785;52.556;13.430;2023-05-10T06:52:48;5.03;;;1.80;;
27293;SDS011;14785;52.556;13.430;2023-05-10T06:55:14;2.27;;;1.67;;
27293;SDS011;14785;52.556;13.430;2023-05-10T06:57:39;1.90;;;1.27;;
27293;SDS011;14785;52.556;13.430;2023-05-10T07:00:05;9.17;;;1.63;;
27293;SDS011;14785;52.556;13.430;2023-05-10T07:02:31;3.53;;;1.23;;
27293;SDS011;14785;52.556;13.430;2023-05-10T07:04:56;5.90;;;1.40;;
27293;SDS011;14785;52.556;13.430;2023-05-10T07:07:22;2.63;;;1.80;;
27293;SDS011;14785;52.556;13.430;2023-05-10T07:09:47;1.23;;;1.13;;
27293;SDS011;14785;52.556;13.430;2023-05-10T07:12:14;1.40;;;1.02;;
27293;SDS011;14785;52.556;13.430;2023-05-10T07:14:40;5.27;;;1.57;;
27293;SDS011;14785;52.556;13.430;2023-05-10T07:17:05;1.20;;;1.10;;
27293;SDS011;14785;52.556;13.430;2023-05-10T07:19:30;4.23;;;1.23;;
27293;SDS011;14785;52.556;13.430;2023-05-10T07:21:57;2.78;;;1.25;;
27293;SDS011;14785;52.556;13.430;2023-05-10T07:24:24;4.47;;;1.63;;
27293;SDS011;14785;52.556;13.430;2023-05-10T07:26:49;2.20;;;1.30;;
27293;SDS011;14785;52.556;13.430;2023-05-10T07:29:15;1.87;;;1.23;;
27293;SDS011;14785;52.556;13.430;2023-05-10T07:31:41;4.05;;;1.83;;
27293;SDS011;14785;52.556;13.430;2023-05-10T07:34:07;3.90;;;1.38;;
27293;SDS011;14785;52.556;13.430;2023-05-10T07:36:33;13.20;;;1.48;;
27293;SDS011;14785;52.556;13.430;2023-05-10T07:38:59;3.78;;;1.35;;
27293;SDS011;14785;52.556;13.430;2023-05-10T07:41:24;2.30;;;1.33;;
27293;SDS011;14785;52.556;13.430;2023-05-10T07:43:50;4.37;;;1.47;;
27293;SDS011;14785;52.556;13.430;2023-05-10T07:46:15;3.50;;;1.83;;
27293;SDS011;14785;52.556;13.430;2023-05-10T07:48:41;2.00;;;1.80;;
27293;SDS011;14785;52.556;13.430;2023-05-10T07:51:06;4.20;;;1.37;;
27293;SDS011;14785;52.556;13.430;2023-05-10T07:53:34;2.95;;;1.42;;
27293;SDS011;14785;52.556;13.430;2023-05-10T07:56:18;2.15;;;1.20;;
27293;SDS011;14785;52.556;13.430;2023-05-10T07:58:45;1.42;;;1.05;;
27293;SDS011;14785;52.556;13.430;2023-05-10T08:01:11;4.30;;;1.60;;
27293;SDS011;14785;52.556;13.430;2023-05-10T08:03:36;1.20;;;1.10;;
27293;SDS011;14785;52.556;13.430;2023-05-10T08:06:01;1.40;;;1.10;;
27293;SDS011;14785;52.556;13.430;2023-05-10T08:08:27;1.40;;;0.97;;
27293;SDS011;14785;52.556;13.430;2023-05-10T08:10:52;1.13;;;1.03;;
27293;SDS011;14785;52.556;13.430;2023-05-10T08:13:18;3.30;;;1.70;;
27293;SDS011;14785;52.556;13.430;2023-05-10T08:15:43;4.90;;;1.13;;
27293;SDS011;14785;52.556;13.430;2023-05-10T08:18:08;2.43;;;1.20;;
27293;SDS011;14785;52.556;13.430;2023-05-10T08:20:34;1.93;;;1.40;;
27293;SDS011;14785;52.556;13.430;2023-05-10T08:22:59;3.63;;;1.07;;
27293;SDS011;14785;52.556;13.430;2023-05-10T08:25:25;3.07;;;1.37;;
27293;SDS011;14785;52.556;13.430;2023-05-10T08:27:50;4.18;;;1.20;;
27293;SDS011;14785;52.556;13.430;2023-05-10T08:30:16;4.00;;;1.47;;
27293;SDS011;14785;52.556;13.430;2023-05-10T08:32:41;5.00;;;1.73;;
27293;SDS011;14785;52.556;13.430;2023-05-10T08:35:06;3.37;;;1.20;;
27293;SDS011;14785;52.556;13.430;2023-05-10T08:37:32;5.03;;;1.50;;
27293;SDS011;14785;52.556;13.430;2023-05-10T08:39:58;3.23;;;1.30;;
27293;SDS011;14785;52.556;13.430;2023-05-10T08:42:23;3.70;;;1.70;;
27293;SDS011;14785;52.556;13.430;2023-05-10T08:44:53;1.45;;;1.15;;
27293;SDS011;14785;52.556;13.430;2023-05-10T08:47:21;1.52;;;1.08;;
27293;SDS011;14785;52.556;13.430;2023-05-10T08:49:47;2.27;;;1.63;;
27293;SDS011;14785;52.556;13.430;2023-05-10T08:52:16;2.88;;;1.55;;
27293;SDS011;14785;52.556;13.430;2023-05-10T08:54:42;2.58;;;1.40;;
27293;SDS011;14785;52.556;13.430;2023-05-10T08:57:09;5.45;;;1.58;;
27293;SDS011;14785;52.556;13.430;2023-05-10T08:59:35;40.15;;;3.08;;
27293;SDS011;14785;52.556;13.430;2023-05-10T09:02:03;3.47;;;1.58;;
27293;SDS011;14785;52.556;13.430;2023-05-10T09:04:29;13.82;;;1.70;;
27293;SDS011;14785;52.556;13.430;2023-05-10T09:06:56;10.77;;;1.20;;
27293;SDS011;14785;52.556;13.430;2023-05-10T09:09:22;2.20;;;1.33;;
27293;SDS011;14785;52.556;13.430;2023-05-10T09:11:48;2.50;;;1.15;;
27293;SDS011;14785;52.556;13.430;2023-05-10T09:14:14;2.80;;;1.17;;
27293;SDS011;14785;52.556;13.430;2023-05-10T09:16:40;2.28;;;1.20;;
27293;SDS011;14785;52.556;13.430;2023-05-10T09:19:06;6.47;;;1.73;;
27293;SDS011;14785;52.556;13.430;2023-05-10T09:21:34;2.58;;;1.38;;
27293;SDS011;14785;52.556;13.430;2023-05-10T09:24:03;2.65;;;1.10;;
27293;SDS011;14785;52.556;13.430;2023-05-10T09:26:30;3.40;;;1.13;;
27293;SDS011;14785;52.556;13.430;2023-05-10T09:28:56;2.90;;;1.37;;
27293;SDS011;14785;52.556;13.430;2023-05-10T09:31:23;0.95;;;0.90;;
27293;SDS011;14785;52.556;13.430;2023-05-10T09:33:50;4.47;;;1.20;;
27293;SDS011;14785;52.556;13.430;2023-05-10T09:38:45;1.85;;;1.00;;
27293;SDS011;14785;52.556;13.430;2023-05-10T09:41:17;4.05;;;1.60;;
27293;SDS011;14785;52.556;13.430;2023-05-10T09:43:46;2.65;;;1.65;;
27293;SDS011;14785;52.556;13.430;2023-05-10T09:46:12;0.97;;;0.93;;
27293;SDS011;14785;52.556;13.430;2023-05-10T09:48:41;1.77;;;1.23;;
27293;SDS011;14785;52.556;13.430;2023-05-10T09:51:08;4.95;;;1.65;;
27293;SDS011;14785;52.556;13.430;2023-05-10T09:53:33;2.67;;;1.30;;
27293;SDS011;14785;52.556;13.430;2023-05-10T09:55:59;3.17;;;1.07;;
27293;SDS011;14785;52.556;13.430;2023-05-10T09:58:24;2.40;;;1.70;;
27293;SDS011;14785;52.556;13.430;2023-05-10T10:00:50;2.67;;;1.30;;
27293;SDS011;14785;52.556;13.430;2023-05-10T10:03:18;3.42;;;1.35;;
27293;SDS011;14785;52.556;13.430;2023-05-10T10:05:46;1.30;;;0.90;;
27293;SDS011;14785;52.556;13.430;2023-05-10T10:08:13;1.75;;;1.25;;
27293;SDS011;14785;52.556;13.430;2023-05-10T10:10:40;1.98;;;1.00;;
27293;SDS011;14785;52.556;13.430;2023-05-10T10:13:06;3.33;;;1.27;;
27293;SDS011;14785;52.556;13.430;2023-05-10T10:15:32;2.33;;;1.08;;
27293;SDS011;14785;52.556;13.430;2023-05-10T10:17:59;1.52;;;1.10;;
27293;SDS011;14785;52.556;13.430;2023-05-10T10:20:25;2.33;;;1.35;;
27293;SDS011;14785;52.556;13.430;2023-05-10T10:25:17;4.90;;;0.90;;
27293;SDS011;14785;52.556;13.430;2023-05-10T10:35:52;1.67;;;1.17;;
27293;SDS011;14785;52.556;13.430;2023-05-10T10:38:19;1.58;;;0.98;;
27293;SDS011;14785;52.556;13.430;2023-05-10T10:40:45;8.68;;;1.30;;
27293;SDS011;14785;52.556;13.430;2023-05-10T10:43:22;1.60;;;0.93;;
27293;SDS011;14785;52.556;13.430;2023-05-10T10:48:51;1.60;;;1.00;;
27293;SDS011;14785;52.556;13.430;2023-05-10T10:51:38;3.60;;;1.25;;
27293;SDS011;14785;52.556;13.430;2023-05-10T10:54:10;1.27;;;1.17;;
27293;SDS011;14785;52.556;13.430;2023-05-10T10:56:36;5.22;;;1.50;;
27293;SDS011;14785;52.556;13.430;2023-05-10T10:59:02;4.97;;;1.30;;
27293;SDS011;14785;52.556;13.430;2023-05-10T11:01:32;2.93;;;1.50;;
27293;SDS011;14785;52.556;13.430;2023-05-10T11:09:06;7.20;;;2.03;;
27293;SDS011;14785;52.556;13.430;2023-05-10T11:11:33;4.35;;;1.77;;
27293;SDS011;14785;52.556;13.430;2023-05-10T11:14:03;3.83;;;0.98;;
27293;SDS011;14785;52.556;13.430;2023-05-10T11:16:40;1.55;;;1.05;;
27293;SDS011;14785;52.556;13.430;2023-05-10T11:21:43;2.40;;;1.45;;
27293;SDS011;14785;52.556;13.430;2023-05-10T11:24:14;3.97;;;1.08;;
27293;SDS011;14785;52.556;13.430;2023-05-10T11:26:41;3.22;;;1.10;;
27293;SDS011;14785;52.556;13.430;2023-05-10T11:29:07;1.95;;;1.30;;
27293;SDS011;14785;52.556;13.430;2023-05-10T11:31:32;6.30;;;1.70;;
27293;SDS011;14785;52.556;13.430;2023-05-10T11:33:58;1.25;;;0.90;;
27293;SDS011;14785;52.556;13.430;2023-05-10T11:41:18;4.07;;;1.17;;
27293;SDS011;14785;52.556;13.430;2023-05-10T11:43:49;2.00;;;1.15;;
27293;SDS011;14785;52.556;13.430;2023-05-10T11:46:15;3.60;;;1.17;;
27293;SDS011;14785;52.556;13.430;2023-05-10T11:48:42;2.67;;;1.55;;
27293;SDS011;14785;52.556;13.430;2023-05-10T11:51:08;4.45;;;1.23;;
27293;SDS011;14785;52.556;13.430;2023-05-10T11:53:35;7.18;;;0.77;;
27293;SDS011;14785;52.556;13.430;2023-05-10T11:56:07;1.77;;;1.05;;
27293;SDS011;14785;52.556;13.430;2023-05-10T11:58:35;5.32;;;2.30;;
27293;SDS011;14785;52.556;13.430;2023-05-10T12:01:01;2.40;;;1.33;;
27293;SDS011;14785;52.556;13.430;2023-05-10T12:03:28;2.20;;;1.10;;
27293;SDS011;14785;52.556;13.430;2023-05-10T12:05:54;2.60;;;1.48;;
27293;SDS011;14785;52.556;13.430;2023-05-10T12:08:24;3.70;;;1.00;;
27293;SDS011;14785;52.556;13.430;2023-05-10T12:10:51;3.75;;;0.80;;
27293;SDS011;14785;52.556;13.430;2023-05-10T12:13:19;3.80;;;1.08;;
27293;SDS011;14785;52.556;13.430;2023-05-10T12:15:46;2.03;;;1.65;;
27293;SDS011;14785;52.556;13.430;2023-05-10T12:18:12;5.85;;;1.77;;
27293;SDS011;14785;52.556;13.430;2023-05-10T12:20:39;3.85;;;1.60;;
27293;SDS011;14785;52.556;13.430;2023-05-10T12:23:05;1.88;;;0.85;;
27293;SDS011;14785;52.556;13.430;2023-05-10T12:25:33;1.50;;;0.52;;
27293;SDS011;14785;52.556;13.430;2023-05-10T12:28:00;1.60;;;1.15;;
27293;SDS011;14785;52.556;13.430;2023-05-10T12:30:29;8.45;;;0.95;;
27293;SDS011;14785;52.556;13.430;2023-05-10T12:33:02;4.93;;;0.82;;
27293;SDS011;14785;52.556;13.430;2023-05-10T12:35:33;1.17;;;1.08;;
27293;SDS011;14785;52.556;13.430;2023-05-10T12:38:27;1.55;;;1.10;;
27293;SDS011;14785;52.556;13.430;2023-05-10T12:40:55;0.88;;;0.70;;
27293;SDS011;14785;52.556;13.430;2023-05-10T12:43:21;1.52;;;1.00;;
27293;SDS011;14785;52.556;13.430;2023-05-10T12:45:47;0.68;;;0.68;;
27293;SDS011;14785;52.556;13.430;2023-05-10T12:48:14;1.45;;;0.88;;
27293;SDS011;14785;52.556;13.430;2023-05-10T12:50:40;3.85;;;1.75;;
27293;SDS011;14785;52.556;13.430;2023-05-10T12:53:05;1.27;;;1.00;;
27293;SDS011;14785;52.556;13.430;2023-05-10T12:55:31;2.22;;;0.90;;
27293;SDS011;14785;52.556;13.430;2023-05-10T12:57:56;1.73;;;0.98;;
27293;SDS011;14785;52.556;13.430;2023-05-10T13:00:22;1.83;;;1.15;;
27293;SDS011;14785;52.556;13.430;2023-05-10T13:02:47;12.07;;;1.17;;
27293;SDS011;14785;52.556;13.430;2023-05-10T13:05:13;2.53;;;0.83;;
27293;SDS011;14785;52.556;13.430;2023-05-10T13:10:04;2.28;;;0.60;;
27293;SDS011;14785;52.556;13.430;2023-05-10T13:12:31;2.05;;;1.35;;
27293;SDS011;14785;52.556;13.430;2023-05-10T13:14:56;4.18;;;1.20;;
27293;SDS011;14785;52.556;13.430;2023-05-10T13:17:22;0.65;;;0.50;;
27293;SDS011;14785;52.556;13.430;2023-05-10T13:22:13;3.13;;;1.07;;
27293;SDS011;14785;52.556;13.430;2023-05-10T13:27:03;1.17;;;1.07;;
27293;SDS011;14785;52.556;13.430;2023-05-10T13:31:54;2.83;;;0.83;;
27293;SDS011;14785;52.556;13.430;2023-05-10T13:36:45;1.02;;;0.80;;
27293;SDS011;14785;52.556;13.430;2023-05-10T13:39:11;2.25;;;1.08;;
27293;SDS011;14785;52.556;13.430;2023-05-10T13:41:37;1.40;;;0.93;;
27293;SDS011;14785;52.556;13.430;2023-05-10T13:46:28;2.10;;;1.40;;
27293;SDS011;14785;52.556;13.430;2023-05-10T13:48:55;2.85;;;1.13;;
27293;SDS011;14785;52.556;13.430;2023-05-10T13:51:20;1.67;;;1.27;;
27293;SDS011;14785;52.556;13.430;2023-05-10T13:56:12;0.47;;;0.47;;
27293;SDS011;14785;52.556;13.430;2023-05-10T13:58:38;3.25;;;1.02;;
27293;SDS011;14785;52.556;13.430;2023-05-10T14:01:03;0.80;;;0.80;;
27293;SDS011;14785;52.556;13.430;2023-05-10T14:03:29;1.38;;;1.10;;
27293;SDS011;14785;52.556;13.430;2023-05-10T14:05:55;2.00;;;0.63;;
27293;SDS011;14785;52.556;13.430;2023-05-10T14:10:47;1.50;;;1.00;;
27293;SDS011;14785;52.556;13.430;2023-05-10T14:13:13;1.05;;;0.95;;
27293;SDS011;14785;52.556;13.430;2023-05-10T14:15:40;1.17;;;0.98;;
27293;SDS011;14785;52.556;13.430;2023-05-10T14:18:05;1.67;;;0.90;;
27293;SDS011;14785;52.556;13.430;2023-05-10T14:22:57;0.88;;;0.70;;
27293;SDS011;14785;52.556;13.430;2023-05-10T14:25:22;1.30;;;1.20;;
27293;SDS011;14785;52.556;13.430;2023-05-10T14:30:13;0.87;;;0.70;;
27293;SDS011;14785;52.556;13.430;2023-05-10T14:32:40;1.55;;;0.70;;
27293;SDS011;14785;52.556;13.430;2023-05-10T14:35:05;5.00;;;1.90;;
27293;SDS011;14785;52.556;13.430;2023-05-10T14:39:57;1.30;;;1.17;;
27293;SDS011;14785;52.556;13.430;2023-05-10T14:44:48;1.43;;;1.03;;
27293;SDS011;14785;52.556;13.430;2023-05-10T14:49:39;4.88;;;2.55;;
27293;SDS011;14785;52.556;13.430;2023-05-10T14:52:05;2.45;;;1.63;;
27293;SDS011;14785;52.556;13.430;2023-05-10T14:56:58;1.50;;;0.80;;
27293;SDS011;14785;52.556;13.430;2023-05-10T15:01:52;1.75;;;0.80;;
27293;SDS011;14785;52.556;13.430;2023-05-10T15:04:17;1.17;;;1.02;;
27293;SDS011;14785;52.556;13.430;2023-05-10T15:09:08;0.80;;;0.73;;
27293;SDS011;14785;52.556;13.430;2023-05-10T15:11:33;1.67;;;1.13;;
27293;SDS011;14785;52.556;13.430;2023-05-10T15:16:25;1.85;;;1.00;;
27293;SDS011;14785;52.556;13.430;2023-05-10T15:21:15;16.30;;;1.10;;
27293;SDS011;14785;52.556;13.430;2023-05-10T15:26:06;1.97;;;1.00;;
27293;SDS011;14785;52.556;13.430;2023-05-10T15:28:32;3.65;;;1.25;;
27293;SDS011;14785;52.556;13.430;2023-05-10T15:33:23;2.60;;;1.48;;
27293;SDS011;14785;52.556;13.430;2023-05-10T15:38:14;10.13;;;1.30;;
27293;SDS011;14785;52.556;13.430;2023-05-10T15:43:05;0.98;;;0.70;;
27293;SDS011;14785;52.556;13.430;2023-05-10T15:47:57;0.87;;;0.70;;
27293;SDS011;14785;52.556;13.430;2023-05-10T15:50:24;5.35;;;0.90;;
27293;SDS011;14785;52.556;13.430;2023-05-10T15:52:49;0.80;;;0.65;;
27293;SDS011;14785;52.556;13.430;2023-05-10T15:55:15;2.95;;;0.98;;
27293;SDS011;14785;52.556;13.430;2023-05-10T15:57:42;0.93;;;0.70;;
27293;SDS011;14785;52.556;13.430;2023-05-10T16:02:34;2.83;;;0.85;;
27293;SDS011;14785;52.556;13.430;2023-05-10T16:05:00;1.35;;;0.93;;
27293;SDS011;14785;52.556;13.430;2023-05-10T16:07:25;1.50;;;1.02;;
27293;SDS011;14785;52.556;13.430;2023-05-10T16:09:51;4.55;;;1.42;;
27293;SDS011;14785;52.556;13.430;2023-05-10T16:12:17;0.90;;;0.60;;
27293;SDS011;14785;52.556;13.430;2023-05-10T16:14:42;3.40;;;1.02;;
27293;SDS011;14785;52.556;13.430;2023-05-10T16:17:08;1.55;;;1.27;;
27293;SDS011;14785;52.556;13.430;2023-05-10T16:19:33;0.82;;;0.80;;
27293;SDS011;14785;52.556;13.430;2023-05-10T16:21:58;2.37;;;1.70;;
27293;SDS011;14785;52.556;13.430;2023-05-10T16:24:24;1.17;;;0.90;;
27293;SDS011;14785;52.556;13.430;2023-05-10T16:26:50;2.20;;;1.10;;